Time;durP1;ratioP1;P1;durP2;ratioP2;P2;SDS_P1;SDS_P2;PMS_P1;PMS_P2;Temp;Humidity;BMP_temperature;BMP_pressure;BME280_temperature;BME280_humidity;BME280_pressure;Samples;Min_cycle;Max_cycle;Signal;HPM_P1;HPM_P2
2022/11/28 00:01:25;;;;;;;18.83;4.32;;;;;;;7.48;84.02;99338.56;4948103;28;20142;-46
2022/11/28 00:03:52;;;;;;;9.65;2.08;;;;;;;7.46;84.03;99343.66;4948615;28;20716;-48
2022/11/28 00:06:20;;;;;;;9.23;2.05;;;;;;;7.44;84.12;99343.19;4951960;28;20055;-46
2022/11/28 00:08:47;;;;;;;14.30;2.83;;;;;;;7.45;83.88;99350.31;4946586;28;20051;-44
2022/11/28 00:11:15;;;;;;;8.85;1.65;;;;;;;7.43;84.03;99346.31;4951779;28;20066;-44
2022/11/28 00:13:42;;;;;;;9.13;1.83;;;;;;;7.41;83.72;99348.63;4952473;28;20075;-44
2022/11/28 00:16:14;;;;;;;15.07;4.07;;;;;;;7.36;83.97;99339.47;4951384;28;20043;-43
2022/11/28 00:18:41;;;;;;;13.15;1.92;;;;;;;7.34;83.88;99338.25;4951300;28;20548;-44
2022/11/28 00:21:10;;;;;;;16.35;2.13;;;;;;;7.32;83.98;99343.31;4951759;28;20039;-44
2022/11/28 00:23:37;;;;;;;11.10;2.63;;;;;;;7.31;83.76;99337.00;4952401;28;20047;-46
2022/11/28 00:26:07;;;;;;;9.20;2.30;;;;;;;7.30;83.74;99345.63;4951346;28;20062;-44
2022/11/28 00:28:35;;;;;;;8.85;2.00;;;;;;;7.30;84.04;99337.38;4952526;29;20535;-45
2022/11/28 00:31:02;;;;;;;12.20;2.63;;;;;;;7.29;84.04;99341.25;4952756;28;20051;-45
2022/11/28 00:33:30;;;;;;;11.45;2.47;;;;;;;7.27;83.93;99332.56;4952074;28;20054;-44
2022/11/28 00:35:59;;;;;;;8.68;3.08;;;;;;;7.25;83.73;99330.16;4950144;28;20123;-43
2022/11/28 00:38:26;;;;;;;14.95;2.95;;;;;;;7.25;83.94;99330.16;4952340;28;20075;-43
2022/11/28 00:41:00;;;;;;;13.43;1.83;;;;;;;7.25;83.97;99330.16;4951191;28;20074;-48
2022/11/28 00:43:27;;;;;;;12.85;2.55;;;;;;;7.24;84.07;99320.31;4943563;29;20047;-44
2022/11/28 00:45:55;;;;;;;9.55;2.30;;;;;;;7.23;83.90;99324.22;4953356;28;20122;-44
2022/11/28 00:48:22;;;;;;;7.60;2.08;;;;;;;7.22;83.94;99319.88;4951628;28;20042;-43
2022/11/28 00:50:49;;;;;;;11.55;2.63;;;;;;;7.21;83.82;99320.22;4951889;28;20051;-46
2022/11/28 00:53:16;;;;;;;8.50;2.40;;;;;;;7.20;83.85;99321.41;4951519;28;20502;-43
2022/11/28 00:55:43;;;;;;;6.57;1.70;;;;;;;7.18;83.65;99307.19;4950992;28;20082;-49
2022/11/28 00:58:10;;;;;;;10.63;2.53;;;;;;;7.15;83.97;99314.19;4951666;28;20066;-44
2022/11/28 01:00:37;;;;;;;11.27;2.35;;;;;;;7.14;84.04;99311.81;4944121;29;20078;-48
2022/11/28 01:03:04;;;;;;;12.05;2.35;;;;;;;7.12;84.13;99303.91;4951554;28;20053;-43
2022/11/28 01:05:30;;;;;;;12.85;2.03;;;;;;;7.12;83.86;99300.38;4950658;29;20047;-45
2022/11/28 01:07:57;;;;;;;13.13;2.70;;;;;;;7.12;83.87;99294.88;4951447;28;20417;-43
2022/11/28 01:10:27;;;;;;;13.50;2.28;;;;;;;7.10;83.88;99297.16;4951125;28;20494;-44
2022/11/28 01:12:53;;;;;;;9.75;1.50;;;;;;;7.07;83.80;99295.91;4951069;29;20050;-43
2022/11/28 01:15:20;;;;;;;15.30;3.13;;;;;;;7.03;83.86;99294.25;4950085;28;20577;-45
2022/11/28 01:17:46;;;;;;;3.53;1.30;;;;;;;7.02;83.85;99287.94;4949160;29;20047;-43
2022/11/28 01:20:13;;;;;;;6.28;1.58;;;;;;;7.00;83.91;99289.44;4951090;28;20055;-46
2022/11/28 01:22:40;;;;;;;5.75;1.90;;;;;;;6.98;83.82;99276.06;4951186;28;20043;-43
2022/11/28 01:25:07;;;;;;;7.78;2.28;;;;;;;6.95;83.56;99276.78;4951015;28;20049;-43
2022/11/28 01:27:33;;;;;;;6.65;1.63;;;;;;;6.93;83.49;99278.28;4949889;28;20500;-46
2022/11/28 01:30:00;;;;;;;7.97;1.60;;;;;;;6.90;83.55;99279.00;4950903;28;20564;-43
2022/11/28 01:32:27;;;;;;;14.57;1.85;;;;;;;6.88;83.62;99281.31;4951076;28;20047;-43
2022/11/28 01:34:53;;;;;;;5.78;1.25;;;;;;;6.87;83.82;99279.69;4939469;28;20051;-44
2022/11/28 01:37:20;;;;;;;11.52;1.65;;;;;;;6.84;83.75;99272.97;4932707;29;20095;-43
2022/11/28 01:39:46;;;;;;;10.25;2.08;;;;;;;6.84;83.84;99274.91;4950245;28;20441;-47
2022/11/28 01:42:19;;;;;;;11.60;3.78;;;;;;;6.83;83.72;99279.59;4950901;28;20043;-44
2022/11/28 01:44:49;;;;;;;18.30;2.85;;;;;;;6.82;83.82;99282.72;4950752;28;20054;-43
2022/11/28 01:47:20;;;;;;;13.95;2.13;;;;;;;6.80;83.53;99291.34;4949790;28;20420;-44
2022/11/28 01:49:49;;;;;;;18.20;2.40;;;;;;;6.80;83.96;99290.53;4950274;28;20047;-45
2022/11/28 01:52:18;;;;;;;13.70;2.38;;;;;;;6.82;83.95;99288.22;4939328;28;20407;-44
2022/11/28 01:54:49;;;;;;;10.27;1.83;;;;;;;6.83;84.06;99295.34;4950654;28;20043;-43
2022/11/28 01:57:19;;;;;;;11.10;2.03;;;;;;;6.82;83.96;99296.47;4949051;28;20055;-44
2022/11/28 01:59:53;;;;;;;8.45;2.13;;;;;;;6.84;83.96;99294.16;4949408;29;20043;-45
2022/11/28 02:02:28;;;;;;;15.35;2.97;;;;;;;6.85;84.28;99291.06;4943677;28;20047;-44
2022/11/28 02:04:55;;;;;;;9.07;2.15;;;;;;;6.86;84.12;99291.88;4950375;28;20141;-44
2022/11/28 02:07:22;;;;;;;13.77;2.38;;;;;;;6.87;84.06;99290.72;4944943;28;20136;-44
2022/11/28 02:09:49;;;;;;;16.73;2.58;;;;;;;6.87;84.24;99307.22;4941660;28;20051;-43
2022/11/28 02:12:24;;;;;;;17.23;3.15;;;;;;;6.86;84.25;99306.41;4950274;28;20078;-43
2022/11/28 02:15:17;;;;;;;16.33;2.30;;;;;;;6.86;84.32;99314.66;4950382;28;20046;-44
2022/11/28 02:18:05;;;;;;;15.27;2.40;;;;;;;6.83;84.41;99320.09;4948024;28;20404;-44
2022/11/28 02:21:01;;;;;;;13.93;2.63;;;;;;;6.82;84.43;99326.75;4949782;28;20576;-43
2022/11/28 02:23:50;;;;;;;15.55;3.72;;;;;;;6.80;84.67;99318.03;4934198;28;20055;-44
2022/11/28 02:26:44;;;;;;;12.25;2.80;;;;;;;6.78;84.69;99323.13;4944491;28;20340;-45
2022/11/28 02:29:28;;;;;;;11.00;2.47;;;;;;;6.77;84.78;99319.56;4942716;29;20047;-43
2022/11/28 02:32:21;;;;;;;13.73;2.80;;;;;;;6.74;84.78;99326.56;4937659;28;20055;-43
2022/11/28 02:35:13;;;;;;;21.55;2.85;;;;;;;6.72;84.72;99317.84;4942376;29;20497;-44
2022/11/28 02:37:49;;;;;;;23.80;3.03;;;;;;;6.71;84.79;99313.53;4946204;28;20047;-43
2022/11/28 02:40:27;;;;;;;12.18;2.22;;;;;;;6.70;84.99;99325.66;4949441;28;20406;-43
2022/11/28 02:42:57;;;;;;;14.07;2.63;;;;;;;6.71;85.05;99312.72;4947995;28;20059;-44
2022/11/28 02:45:51;;;;;;;12.70;2.10;;;;;;;6.70;85.09;99314.66;4949724;28;20047;-44
2022/11/28 02:48:20;;;;;;;19.33;2.60;;;;;;;6.65;85.05;99317.69;4945533;29;20496;-48
2022/11/28 02:51:02;;;;;;;15.50;2.63;;;;;;;6.61;85.29;99311.31;4949654;28;20057;-43
2022/11/28 02:53:32;;;;;;;13.90;2.53;;;;;;;6.61;85.24;99314.06;4949468;28;20054;-45
2022/11/28 02:55:59;;;;;;;11.65;2.72;;;;;;;6.60;85.39;99319.88;4948457;28;20296;-46
2022/11/28 02:58:26;;;;;;;16.02;2.45;;;;;;;6.58;85.32;99314.75;4945098;28;20051;-44
2022/11/28 03:00:54;;;;;;;15.77;2.28;;;;;;;6.54;85.24;99311.09;4980875;23;20639;-45
2022/11/28 03:03:45;;;;;;;11.73;3.17;;;;;;;6.52;85.47;99305.16;4930702;29;20052;-44
2022/11/28 03:06:33;;;;;;;9.20;2.05;;;;;;;6.51;85.45;99306.31;4919263;29;20055;-44
2022/11/28 03:09:31;;;;;;;17.48;2.55;;;;;;;6.52;85.63;99296.91;4930351;29;20055;-44
2022/11/28 03:12:12;;;;;;;7.60;2.50;;;;;;;6.52;85.65;99290.59;4925164;29;20052;-44
2022/11/28 03:14:42;;;;;;;13.68;2.50;;;;;;;6.52;85.67;99301.59;4930175;29;20036;-43
2022/11/28 03:17:24;;;;;;;17.58;1.98;;;;;;;6.52;85.55;99302.41;4929496;29;20067;-43
2022/11/28 03:19:54;;;;;;;13.93;2.53;;;;;;;6.52;85.74;99302.41;4930417;29;20047;-44
2022/11/28 03:22:41;;;;;;;10.35;1.92;;;;;;;6.53;85.70;99298.53;4929681;29;20138;-43
2022/11/28 03:25:22;;;;;;;13.43;2.00;;;;;;;6.52;85.56;99305.16;4917824;29;20099;-43
2022/11/28 03:28:13;;;;;;;11.68;2.13;;;;;;;6.53;85.72;99297.72;4929277;29;20047;-43
2022/11/28 03:30:51;;;;;;;17.05;1.95;;;;;;;6.53;85.79;99293.03;4923928;29;20047;-44
2022/11/28 03:33:21;;;;;;;11.13;2.50;;;;;;;6.54;85.88;99299.31;4927931;29;20457;-49
2022/11/28 03:35:54;;;;;;;10.93;2.03;;;;;;;6.55;86.00;99295.41;4929846;29;20062;-44
2022/11/28 03:38:43;;;;;;;11.82;2.45;;;;;;;6.55;85.81;99307.22;4929738;29;20130;-44
2022/11/28 03:41:15;;;;;;;6.32;1.33;;;;;;;6.58;85.92;99300.19;4929591;29;20414;-48
2022/11/28 03:43:49;;;;;;;18.52;3.17;;;;;;;6.60;86.01;99304.19;4928561;29;20059;-45
2022/11/28 03:46:19;;;;;;;9.27;2.85;;;;;;;6.63;85.67;99314.50;4929852;29;20052;-44
2022/11/28 03:48:49;;;;;;;15.40;3.17;;;;;;;6.63;85.66;99314.50;4928580;29;20426;-44
2022/11/28 03:51:20;;;;;;;7.05;1.95;;;;;;;6.62;85.68;99312.88;4929869;29;20454;-45
2022/11/28 03:53:58;;;;;;;11.60;2.42;;;;;;;6.60;85.46;99308.88;4927838;29;20522;-47
2022/11/28 03:56:44;;;;;;;9.45;2.00;;;;;;;6.60;85.61;99315.19;4929488;29;20055;-44
2022/11/28 03:59:59;;;;;;;6.22;1.48;;;;;;;6.59;85.66;99312.81;4919551;29;20058;-44
2022/11/28 04:02:51;;;;;;;13.68;1.45;;;;;;;6.58;85.69;99314.75;4908495;29;20055;-44
2022/11/28 04:05:41;;;;;;;7.07;1.88;;;;;;;6.58;85.65;99320.25;4929811;29;20545;-47
2022/11/28 04:08:25;;;;;;;5.75;1.67;;;;;;;6.58;85.53;99322.19;4929412;29;20052;-45
2022/11/28 04:11:11;;;;;;;8.15;1.92;;;;;;;6.57;85.68;99321.38;4929293;29;20040;-44
2022/11/28 04:13:49;;;;;;;9.32;2.35;;;;;;;6.57;85.63;99321.38;4928769;29;20087;-44
2022/11/28 04:16:34;;;;;;;11.23;2.13;;;;;;;6.57;85.59;99339.84;4929625;29;20058;-44
2022/11/28 04:19:22;;;;;;;10.75;2.20;;;;;;;6.58;85.43;99328.50;4928906;29;20497;-44
2022/11/28 04:22:06;;;;;;;14.00;2.40;;;;;;;6.60;85.79;99334.44;4929306;29;20052;-44
2022/11/28 04:24:38;;;;;;;10.57;2.42;;;;;;;6.63;85.74;99342.00;4928532;29;20052;-44
2022/11/28 04:27:10;;;;;;;11.65;1.73;;;;;;;6.63;85.58;99347.50;4912529;29;20044;-44
2022/11/28 04:29:48;;;;;;;16.40;3.08;;;;;;;6.66;85.78;99352.28;4929462;29;20060;-44
2022/11/28 04:32:18;;;;;;;12.25;2.08;;;;;;;6.67;85.75;99356.63;4929416;29;20062;-44
2022/11/28 04:34:49;;;;;;;9.88;1.73;;;;;;;6.65;85.87;99356.19;4908360;29;20135;-44
2022/11/28 04:37:17;;;;;;;6.05;1.60;;;;;;;6.66;85.66;99357.78;4929181;29;20429;-44
2022/11/28 04:39:47;;;;;;;10.57;2.00;;;;;;;6.67;85.77;99353.88;4929189;29;20052;-44
2022/11/28 04:42:20;;;;;;;9.93;2.90;;;;;;;6.64;85.64;99365.59;4928891;29;20431;-45
2022/11/28 04:44:56;;;;;;;5.75;1.58;;;;;;;6.64;85.64;99365.59;4928761;29;20036;-44
2022/11/28 04:47:24;;;;;;;14.02;3.95;;;;;;;6.62;85.74;99372.56;4928604;29;20520;-45
2022/11/28 04:49:52;;;;;;;6.90;2.13;;;;;;;6.59;85.74;99368.56;4929243;29;20474;-47
2022/11/28 04:52:22;;;;;;;10.40;1.80;;;;;;;6.56;85.79;99361.06;4932204;29;20064;-44
2022/11/28 04:55:11;;;;;;;14.23;3.28;;;;;;;6.56;85.95;99368.50;4932121;29;20051;-50
2022/11/28 04:57:42;;;;;;;10.68;1.40;;;;;;;6.55;85.79;99366.88;4921864;29;20055;-44
2022/11/28 05:00:16;;;;;;;10.77;1.92;;;;;;;6.53;85.91;99369.19;4932470;29;20083;-46
2022/11/28 05:02:48;;;;;;;9.27;1.60;;;;;;;6.52;86.11;99378.59;4915771;29;20044;-44
2022/11/28 05:05:24;;;;;;;7.22;1.75;;;;;;;6.51;86.07;99369.53;4932146;29;20043;-44
2022/11/28 05:07:51;;;;;;;13.18;2.20;;;;;;;6.52;86.15;99376.66;4932453;29;20054;-44
2022/11/28 05:10:20;;;;;;;17.20;1.40;;;;;;;6.50;86.03;99365.22;4932020;29;20167;-44
2022/11/28 05:12:46;;;;;;;16.88;2.30;;;;;;;6.50;86.25;99372.66;4931697;29;20055;-44
2022/11/28 05:15:17;;;;;;;8.73;1.80;;;;;;;6.47;86.17;99371.41;4931874;29;20078;-46
2022/11/28 05:17:45;;;;;;;12.35;1.63;;;;;;;6.43;86.33;99376.03;4919214;29;20050;-44
2022/11/28 05:20:12;;;;;;;9.05;1.73;;;;;;;6.41;86.26;99381.03;4932013;29;20047;-44
2022/11/28 05:22:39;;;;;;;6.25;1.55;;;;;;;6.40;86.46;99384.97;4931570;29;20129;-48
2022/11/28 05:25:06;;;;;;;6.53;1.50;;;;;;;6.38;86.65;99384.50;4931805;29;20473;-44
2022/11/28 05:27:32;;;;;;;14.05;1.60;;;;;;;6.37;86.44;99376.59;4915210;29;20054;-44
2022/11/28 05:29:59;;;;;;;7.75;1.40;;;;;;;6.36;86.50;99388.75;4931783;29;20059;-44
2022/11/28 05:32:29;;;;;;;13.35;1.90;;;;;;;6.33;86.89;99376.50;4931852;29;20450;-44
2022/11/28 05:34:56;;;;;;;7.38;1.40;;;;;;;6.33;86.69;99382.00;4931042;29;20047;-46
2022/11/28 05:37:24;;;;;;;12.07;1.73;;;;;;;6.32;86.94;99385.09;4931971;29;20403;-44
2022/11/28 05:39:50;;;;;;;7.57;1.33;;;;;;;6.29;87.22;99378.34;4931920;29;20063;-44
2022/11/28 05:42:17;;;;;;;13.27;3.63;;;;;;;6.29;87.17;99385.81;4931344;29;20102;-45
2022/11/28 05:44:44;;;;;;;7.05;1.33;;;;;;;6.26;87.18;99392.78;4932387;29;20055;-46
2022/11/28 05:47:10;;;;;;;8.48;2.42;;;;;;;6.26;87.14;99381.00;4932196;29;20042;-44
2022/11/28 05:49:37;;;;;;;7.13;1.50;;;;;;;6.24;87.32;99395.09;4914878;29;20131;-44
2022/11/28 05:52:04;;;;;;;13.93;1.73;;;;;;;6.23;87.48;99392.69;4931266;29;20055;-45
2022/11/28 05:54:30;;;;;;;8.15;1.48;;;;;;;6.22;87.60;99408.41;4931402;29;20044;-44
2022/11/28 05:56:57;;;;;;;9.90;1.80;;;;;;;6.21;87.40;99412.28;4931917;29;20040;-44
2022/11/28 05:59:24;;;;;;;6.47;2.28;;;;;;;6.19;87.67;99417.34;4931281;29;20056;-44
2022/11/28 06:01:51;;;;;;;8.98;1.23;;;;;;;6.18;87.73;99418.47;4930354;29;20047;-44
2022/11/28 06:04:17;;;;;;;5.45;1.10;;;;;;;6.17;87.79;99422.34;4930525;29;20063;-45
2022/11/28 06:06:44;;;;;;;6.10;1.63;;;;;;;6.18;87.64;99412.16;4931116;29;20057;-44
2022/11/28 06:09:11;;;;;;;6.05;1.08;;;;;;;6.17;87.73;99416.84;4930654;29;20118;-50
2022/11/28 06:11:38;;;;;;;6.72;1.30;;;;;;;6.17;87.99;99411.38;4931486;29;20143;-44
2022/11/28 06:14:04;;;;;;;6.50;1.23;;;;;;;6.18;88.12;99423.97;4930298;29;20055;-44
2022/11/28 06:16:31;;;;;;;8.82;1.73;;;;;;;6.21;88.14;99417.78;4931554;29;20047;-44
2022/11/28 06:19:03;;;;;;;9.20;1.40;;;;;;;6.21;88.04;99428.78;4931186;29;20055;-45
2022/11/28 06:21:31;;;;;;;6.28;1.08;;;;;;;6.19;88.16;99431.06;4931037;29;20103;-49
2022/11/28 06:23:59;;;;;;;5.60;1.48;;;;;;;6.20;88.26;99437.34;4929845;29;20055;-44
2022/11/28 06:26:27;;;;;;;5.25;0.88;;;;;;;6.19;88.19;99439.31;4913989;29;20122;-44
2022/11/28 06:28:54;;;;;;;2.47;0.80;;;;;;;6.19;88.23;99435.75;4930109;29;20102;-44
2022/11/28 06:31:23;;;;;;;7.03;1.10;;;;;;;6.19;88.36;99446.75;4931084;29;20052;-44
2022/11/28 06:33:50;;;;;;;9.30;1.20;;;;;;;6.19;88.44;99442.06;4929727;29;20040;-44
2022/11/28 06:36:18;;;;;;;9.45;0.98;;;;;;;6.18;88.42;99451.44;4930674;29;20055;-44
2022/11/28 06:38:46;;;;;;;7.00;1.80;;;;;;;6.17;88.54;99460.81;4912935;29;20050;-45
2022/11/28 06:41:15;;;;;;;7.35;1.15;;;;;;;6.16;88.65;99456.50;4930594;29;20578;-44
2022/11/28 06:43:42;;;;;;;11.82;1.52;;;;;;;6.13;88.66;99463.50;4929344;29;20443;-44
2022/11/28 06:46:14;;;;;;;8.48;1.30;;;;;;;6.12;88.88;99469.31;4930597;29;20063;-46
2022/11/28 06:48:43;;;;;;;10.32;1.40;;;;;;;6.09;88.81;99470.00;4931045;29;20043;-45
2022/11/28 06:51:10;;;;;;;6.45;0.80;;;;;;;6.10;88.99;99482.59;4930190;29;20051;-44
2022/11/28 06:53:36;;;;;;;3.30;0.98;;;;;;;6.09;88.94;99481.78;4929399;29;20478;-44
2022/11/28 06:56:12;;;;;;;7.15;1.10;;;;;;;6.04;89.03;99479.28;4929765;29;20401;-44
2022/11/28 06:58:40;;;;;;;5.57;1.13;;;;;;;6.05;88.99;99485.59;4927699;29;20517;-47
2022/11/28 07:01:11;;;;;;;6.75;1.50;;;;;;;6.06;89.20;99492.69;4913501;29;20071;-44
2022/11/28 07:03:38;;;;;;;9.23;1.17;;;;;;;6.08;89.68;99498.66;4929669;29;20484;-48
2022/11/28 07:06:06;;;;;;;7.32;1.20;;;;;;;6.12;89.46;99497.59;4929919;29;20064;-47
2022/11/28 07:08:33;;;;;;;17.67;2.92;;;;;;;6.18;89.86;99503.66;4929760;29;20489;-44
2022/11/28 07:11:21;;;;;;;5.35;1.73;;;;;;;6.22;89.57;99514.78;4929984;29;20055;-45
2022/11/28 07:13:48;;;;;;;13.45;2.83;;;;;;;6.24;89.74;99518.78;4928760;29;20056;-44
2022/11/28 07:16:24;;;;;;;8.45;1.48;;;;;;;6.23;89.59;99517.16;4916173;29;20054;-44
2022/11/28 07:18:52;;;;;;;7.55;1.48;;;;;;;6.22;89.45;99526.56;4929966;29;20457;-44
2022/11/28 07:21:20;;;;;;;5.55;1.08;;;;;;;6.20;89.76;99530.78;4930462;29;20048;-46
2022/11/28 07:23:47;;;;;;;9.48;1.42;;;;;;;6.18;90.29;99539.38;4928621;29;20139;-44
2022/11/28 07:26:16;;;;;;;10.38;1.92;;;;;;;6.19;89.85;99552.00;4929384;29;20059;-44
2022/11/28 07:28:44;;;;;;;3.92;1.13;;;;;;;6.22;90.24;99550.50;4929678;29;20043;-44
2022/11/28 07:31:14;;;;;;;7.00;1.08;;;;;;;6.25;90.04;99553.34;4928418;29;20059;-44
2022/11/28 07:33:42;;;;;;;5.97;1.40;;;;;;;6.27;90.14;99547.50;4928736;29;20140;-44
2022/11/28 07:36:15;;;;;;;5.60;1.05;;;;;;;6.30;90.41;99558.59;4929682;29;20086;-43
2022/11/28 07:38:45;;;;;;;5.95;1.05;;;;;;;6.31;90.52;99554.72;4927868;29;20040;-45
2022/11/28 07:41:14;;;;;;;10.13;1.73;;;;;;;6.33;90.27;99560.66;4929658;29;20047;-44
2022/11/28 07:43:42;;;;;;;6.20;0.90;;;;;;;6.37;90.70;99558.84;4929760;29;20051;-44
2022/11/28 07:46:13;;;;;;;4.32;0.90;;;;;;;6.41;90.82;99554.22;4929422;29;20052;-49
2022/11/28 07:48:40;;;;;;;7.13;1.10;;;;;;;6.40;90.70;99552.66;4928300;29;20048;-44
2022/11/28 07:51:12;;;;;;;7.30;1.60;;;;;;;6.40;90.58;99563.66;4929178;29;20518;-45
2022/11/28 07:53:39;;;;;;;6.18;1.10;;;;;;;6.39;90.75;99563.97;4912596;29;20087;-44
2022/11/28 07:56:12;;;;;;;7.43;1.05;;;;;;;6.34;90.77;99559.53;4929462;29;20048;-45
2022/11/28 07:58:39;;;;;;;5.05;0.90;;;;;;;6.32;91.02;99556.31;4928446;29;20059;-46
2022/11/28 08:01:09;;;;;;;8.23;1.25;;;;;;;6.31;91.35;99554.72;4929324;29;20497;-44
2022/11/28 08:03:36;;;;;;;6.95;0.90;;;;;;;6.32;91.31;99561.81;4928999;29;20482;-44
2022/11/28 08:06:03;;;;;;;6.45;1.10;;;;;;;6.32;91.40;99561.00;4928072;29;20054;-44
2022/11/28 08:08:30;;;;;;;4.60;1.10;;;;;;;6.30;91.52;99560.56;4929374;29;20384;-44
2022/11/28 08:10:59;;;;;;;7.03;1.63;;;;;;;6.28;91.38;99574.63;4929232;29;20478;-44
2022/11/28 08:13:27;;;;;;;7.13;1.33;;;;;;;6.26;91.68;99576.94;4929219;29;20047;-53
2022/11/28 08:15:54;;;;;;;6.78;1.08;;;;;;;6.24;91.44;99581.97;4928331;29;20079;-44
2022/11/28 08:18:21;;;;;;;5.00;0.90;;;;;;;6.22;91.65;99595.28;4928847;29;20051;-45
2022/11/28 08:20:48;;;;;;;8.43;1.38;;;;;;;6.19;91.79;99592.41;4929228;29;20052;-44
2022/11/28 08:23:15;;;;;;;3.97;0.95;;;;;;;6.18;91.73;99599.03;4920948;29;20052;-44
2022/11/28 08:25:42;;;;;;;5.30;1.17;;;;;;;6.16;91.98;99607.63;4930665;29;20068;-45
2022/11/28 08:28:09;;;;;;;4.47;1.20;;;;;;;6.15;92.04;99603.28;4933268;29;20046;-44
2022/11/28 08:30:35;;;;;;;4.55;0.98;;;;;;;6.15;92.31;99625.25;4933532;29;20052;-44
2022/11/28 08:33:02;;;;;;;13.75;1.42;;;;;;;6.15;91.95;99619.75;4932604;29;20048;-44
2022/11/28 08:35:30;;;;;;;5.60;1.10;;;;;;;6.14;92.14;99626.41;4932906;29;20044;-44
2022/11/28 08:37:56;;;;;;;5.38;1.42;;;;;;;6.12;92.16;99632.25;4932237;29;20128;-45
2022/11/28 08:40:27;;;;;;;44.55;14.20;;;;;;;6.13;92.65;99631.09;4932261;29;20055;-46
2022/11/28 08:42:57;;;;;;;7.00;1.75;;;;;;;6.16;92.71;99635.09;4932586;29;20502;-45
2022/11/28 08:45:24;;;;;;;4.18;1.58;;;;;;;6.16;92.73;99637.06;4929466;29;20746;-47
2022/11/28 08:47:52;;;;;;;7.90;1.30;;;;;;;6.17;92.47;99636.69;4917167;29;20062;-48
2022/11/28 08:50:18;;;;;;;7.53;1.17;;;;;;;6.21;92.81;99647.81;4933319;29;20070;-45
2022/11/28 08:52:45;;;;;;;7.57;1.05;;;;;;;6.26;93.08;99656.63;4934452;29;20046;-45
2022/11/28 08:55:11;;;;;;;4.72;1.17;;;;;;;6.30;92.83;99663.03;4917640;29;20044;-45
2022/11/28 08:57:38;;;;;;;5.32;0.85;;;;;;;6.34;93.06;99663.97;4933077;29;20090;-46
2022/11/28 09:00:06;;;;;;;6.35;1.42;;;;;;;6.37;92.87;99660.53;4933333;29;20071;-51
2022/11/28 09:02:33;;;;;;;7.88;1.70;;;;;;;6.40;92.90;99672.78;4933968;29;20458;-46
2022/11/28 09:05:01;;;;;;;10.07;2.58;;;;;;;6.43;92.97;99683.09;4934699;29;20130;-47
2022/11/28 09:07:27;;;;;;;3.42;1.38;;;;;;;6.47;93.17;99689.50;4911058;29;20054;-48
2022/11/28 09:09:55;;;;;;;5.22;1.27;;;;;;;6.48;93.12;99691.94;4934007;29;20425;-51
2022/11/28 09:12:22;;;;;;;7.65;1.40;;;;;;;6.50;93.46;99700.63;4933396;29;20054;-48
2022/11/28 09:14:49;;;;;;;7.00;1.48;;;;;;;6.53;93.59;99710.94;4934418;29;20130;-45
2022/11/28 09:17:15;;;;;;;8.88;2.20;;;;;;;6.56;93.61;99709.47;4932554;29;20051;-45
2022/11/28 09:19:42;;;;;;;5.60;1.25;;;;;;;6.58;93.55;99710.72;4916564;29;20040;-45
2022/11/28 09:22:09;;;;;;;7.65;1.58;;;;;;;6.61;93.94;99715.53;4933961;29;20447;-45
2022/11/28 09:24:36;;;;;;;4.95;1.75;;;;;;;6.65;93.92;99721.13;4933875;29;20051;-47
2022/11/28 09:27:03;;;;;;;8.43;1.65;;;;;;;6.67;93.90;99719.63;4933172;29;20044;-45
2022/11/28 09:29:29;;;;;;;6.93;2.50;;;;;;;6.70;94.00;99738.22;4933660;29;20070;-45
2022/11/28 09:31:56;;;;;;;8.43;2.22;;;;;;;6.73;93.95;99732.03;4934135;29;20048;-45
2022/11/28 09:34:23;;;;;;;6.13;1.30;;;;;;;6.74;94.14;99744.66;4933724;29;20553;-49
2022/11/28 09:36:50;;;;;;;8.00;1.48;;;;;;;6.75;94.21;99748.97;4932892;29;20043;-45
2022/11/28 09:39:18;;;;;;;9.52;0.98;;;;;;;6.79;94.29;99751.03;4933877;29;20064;-44
2022/11/28 09:41:54;;;;;;;6.40;2.38;;;;;;;6.82;94.33;99761.38;4933542;29;20099;-44
2022/11/28 09:44:52;;;;;;;12.10;2.00;;;;;;;6.84;94.25;99761.81;4933066;29;20060;-44
2022/11/28 09:47:24;;;;;;;6.38;1.80;;;;;;;6.84;94.28;99764.56;4915971;29;20067;-45
2022/11/28 09:49:51;;;;;;;9.77;1.50;;;;;;;6.84;94.30;99775.56;4933280;29;20478;-45
2022/11/28 09:52:39;;;;;;;10.00;1.63;;;;;;;6.87;94.45;99777.66;4932420;29;20043;-46
2022/11/28 09:55:21;;;;;;;7.22;2.15;;;;;;;6.98;94.60;99782.34;4928572;29;20490;-45
2022/11/28 09:57:50;;;;;;;6.07;1.50;;;;;;;7.09;94.51;99780.75;4932101;29;20047;-45
2022/11/28 10:00:29;;;;;;;14.18;3.80;;;;;;;7.14;94.37;99786.00;4933054;29;20040;-45
2022/11/28 10:03:10;;;;;;;9.98;2.58;;;;;;;7.11;94.46;99796.91;4932649;29;20514;-45
2022/11/28 10:05:49;;;;;;;7.57;1.80;;;;;;;7.06;94.56;99799.88;4932736;29;20052;-45
2022/11/28 10:08:34;;;;;;;10.65;2.22;;;;;;;7.03;94.83;99808.81;4932611;29;20406;-45
2022/11/28 10:11:21;;;;;;;4.95;2.33;;;;;;;7.02;95.08;99818.22;4921059;29;20098;-45
2022/11/28 10:14:00;;;;;;;6.78;3.05;;;;;;;7.00;95.26;99817.78;4932820;29;20047;-45
2022/11/28 10:17:08;;;;;;;6.85;2.30;;;;;;;7.00;95.40;99812.25;4924036;29;20497;-45
2022/11/28 10:19:41;;;;;;;7.90;2.65;;;;;;;7.04;95.56;99824.22;4932903;29;20047;-45
2022/11/28 10:22:31;;;;;;;12.27;2.90;;;;;;;7.08;95.93;99841.63;4932467;29;20055;-45
2022/11/28 10:25:05;;;;;;;12.13;3.00;;;;;;;7.14;95.80;99840.25;4932686;29;20521;-45
2022/11/28 10:27:34;;;;;;;11.98;2.95;;;;;;;7.20;95.74;99844.41;4932212;29;20043;-48
2022/11/28 10:30:16;;;;;;;10.90;2.85;;;;;;;7.25;95.77;99855.94;4932871;29;20489;-45
2022/11/28 10:32:53;;;;;;;4.63;2.90;;;;;;;7.26;95.99;99860.31;4932383;29;20059;-42
2022/11/28 10:36:05;;;;;;;6.35;2.55;;;;;;;7.30;95.93;99863.19;4932267;29;20106;-44
2022/11/28 10:38:35;;;;;;;9.23;2.85;;;;;;;7.31;96.13;99857.34;4929855;29;20048;-44
2022/11/28 10:41:21;;;;;;;5.90;2.80;;;;;;;7.35;96.26;99862.97;4932235;29;20043;-48
2022/11/28 10:44:06;;;;;;;7.63;2.92;;;;;;;7.38;96.14;99870.53;4920366;29;20038;-45
2022/11/28 10:46:49;;;;;;;11.38;2.83;;;;;;;7.38;96.40;99865.03;4915296;29;20050;-45
2022/11/28 10:49:41;;;;;;;7.32;3.00;;;;;;;7.39;96.56;99868.59;4926927;29;20048;-46
2022/11/28 10:52:19;;;;;;;9.13;3.50;;;;;;;7.40;96.65;99876.50;4930544;29;20047;-45
2022/11/28 10:55:26;;;;;;;8.23;2.53;;;;;;;7.42;96.81;99874.19;4931195;29;20052;-46
2022/11/28 10:58:12;;;;;;;3.42;2.05;;;;;;;7.42;96.86;99879.69;4912635;29;20135;-49
2022/11/28 11:00:44;;;;;;;7.32;2.10;;;;;;;7.44;96.89;99882.91;4913481;29;20443;-46
2022/11/28 11:03:14;;;;;;;7.38;1.80;;;;;;;7.45;96.98;99892.78;4931997;29;20143;-53
2022/11/28 11:05:41;;;;;;;5.63;1.85;;;;;;;7.51;97.24;99899.66;4931095;29;20055;-46
2022/11/28 11:08:24;;;;;;;4.03;2.17;;;;;;;7.55;97.19;99900.56;4931440;29;20093;-45
2022/11/28 11:11:01;;;;;;;4.82;2.03;;;;;;;7.57;97.13;99898.25;4930934;29;20154;-44
2022/11/28 11:13:31;;;;;;;5.22;1.83;;;;;;;7.61;97.24;99915.72;4931707;29;20545;-46
2022/11/28 11:16:02;;;;;;;7.15;2.10;;;;;;;7.64;97.31;99923.31;4931905;29;20040;-51
2022/11/28 11:18:36;;;;;;;5.35;1.73;;;;;;;7.67;97.50;99916.31;4932059;29;20402;-45
2022/11/28 11:21:26;;;;;;;6.22;2.35;;;;;;;7.72;97.38;99933.41;4931140;29;20059;-50
2022/11/28 11:24:15;;;;;;;2.42;0.75;;;;;;;7.73;97.47;99940.50;4931573;29;20143;-46
2022/11/28 11:26:48;;;;;;;3.88;1.35;;;;;;;7.74;97.43;99935.78;4931676;29;20418;-50
2022/11/28 11:29:27;;;;;;;;;;;;;;;7.68;97.19;99949.00;4914903;29;20060;-45
2022/11/28 11:31:54;;;;;;;3.47;1.98;;;;;;;7.63;97.29;99957.50;4918381;29;19923;-44
2022/11/28 11:34:23;;;;;;;5.43;1.35;;;;;;;7.61;97.33;99956.25;4914873;29;20052;-45
2022/11/28 11:36:50;;;;;;;1.00;0.55;;;;;;;7.66;97.59;99958.75;4931308;29;20102;-44
2022/11/28 11:39:24;;;;;;;1.65;0.77;;;;;;;7.72;97.45;99960.16;4931762;29;20051;-48
2022/11/28 11:42:10;;;;;;;0.63;0.40;;;;;;;7.75;97.40;99954.75;4930610;29;20058;-45
2022/11/28 11:44:38;;;;;;;3.33;0.80;;;;;;;7.75;97.39;99954.75;4931451;29;20044;-45
2022/11/28 11:47:07;;;;;;;1.38;0.50;;;;;;;7.72;97.18;99960.16;4931134;29;20052;-46
2022/11/28 11:49:46;;;;;;;1.17;0.32;;;;;;;7.68;97.25;99970.22;4931384;29;20056;-46
2022/11/28 11:52:22;;;;;;;0.68;0.52;;;;;;;7.67;97.05;99974.16;4929942;29;20054;-47
2022/11/28 11:55:08;;;;;;;0.98;0.50;;;;;;;7.67;97.28;99969.44;4931436;29;20067;-51
2022/11/28 11:57:43;;;;;;;2.90;0.90;;;;;;;7.71;97.43;99981.38;4924715;29;20060;-48
2022/11/28 12:00:18;;;;;;;2.65;1.08;;;;;;;7.73;97.15;99981.81;4932574;29;20410;-45
2022/11/28 12:03:19;;;;;;;1.95;0.80;;;;;;;7.79;96.99;99994.22;4933030;29;20138;-45
2022/11/28 12:05:54;;;;;;;4.15;0.77;;;;;;;7.76;96.95;99994.91;4935210;29;20059;-51